sensor_id;sensor_type;location;lat;lon;timestamp;pressure;altitude;pressure_sealevel;temperature
64947;BMP280;51469;52.150;4.682;2023-04-29T00:00:35;101787.03;;;16.15
64947;BMP280;51469;52.150;4.682;2023-04-29T00:03:00;101786.59;;;16.06
64947;BMP280;51469;52.150;4.682;2023-04-29T00:05:26;101793.31;;;16.05
64947;BMP280;51469;52.150;4.682;2023-04-29T00:07:51;101792.94;;;16.10
64947;BMP280;51469;52.150;4.682;2023-04-29T00:10:17;101799.25;;;16.07
64947;BMP280;51469;52.150;4.682;2023-04-29T00:12:42;101801.25;;;16.10
64947;BMP280;51469;52.150;4.682;2023-04-29T00:15:08;101800.47;;;16.13
64947;BMP280;51469;52.150;4.682;2023-04-29T00:17:34;101806.00;;;16.13
64947;BMP280;51469;52.150;4.682;2023-04-29T00:19:59;101799.66;;;16.09
64947;BMP280;51469;52.150;4.682;2023-04-29T00:22:24;101805.97;;;16.06
64947;BMP280;51469;52.150;4.682;2023-04-29T00:24:50;101809.94;;;15.98
64947;BMP280;51469;52.150;4.682;2023-04-29T00:27:17;101809.94;;;16.02
64947;BMP280;51469;52.150;4.682;2023-04-29T00:29:42;101804.78;;;15.97
64947;BMP280;51469;52.150;4.682;2023-04-29T00:32:08;101812.28;;;15.96
64947;BMP280;51469;52.150;4.682;2023-04-29T00:34:33;101814.66;;;16.01
64947;BMP280;51469;52.150;4.682;2023-04-29T00:36:58;101814.66;;;15.94
64947;BMP280;51469;52.150;4.682;2023-04-29T00:39:24;101821.00;;;15.98
64947;BMP280;51469;52.150;4.682;2023-04-29T00:41:50;101819.00;;;15.99
64947;BMP280;51469;52.150;4.682;2023-04-29T00:44:15;101819.00;;;16.02
64947;BMP280;51469;52.150;4.682;2023-04-29T00:46:41;101815.47;;;15.98
64947;BMP280;51469;52.150;4.682;2023-04-29T00:49:07;101819.38;;;15.87
64947;BMP280;51469;52.150;4.682;2023-04-29T00:51:33;101818.97;;;15.95
64947;BMP280;51469;52.150;4.682;2023-04-29T00:53:59;101815.44;;;15.95
64947;BMP280;51469;52.150;4.682;2023-04-29T00:56:24;101821.69;;;15.81
64947;BMP280;51469;52.150;4.682;2023-04-29T00:58:50;101824.53;;;15.99
64947;BMP280;51469;52.150;4.682;2023-04-29T01:01:17;101824.13;;;15.93
64947;BMP280;51469;52.150;4.682;2023-04-29T01:03:44;101821.00;;;15.95
64947;BMP280;51469;52.150;4.682;2023-04-29T01:17:47;101847.81;;;15.87
64947;BMP280;51469;52.150;4.682;2023-04-29T01:20:15;101845.47;;;15.93
64947;BMP280;51469;52.150;4.682;2023-04-29T01:22:40;101833.66;;;16.03
64947;BMP280;51469;52.150;4.682;2023-04-29T01:25:06;101834.84;;;15.98
64947;BMP280;51469;52.150;4.682;2023-04-29T01:28:01;101844.69;;;15.96
64947;BMP280;51469;52.150;4.682;2023-04-29T01:35:44;101839.13;;;15.85
64947;BMP280;51469;52.150;4.682;2023-04-29T01:41:09;101845.53;;;16.10
64947;BMP280;51469;52.150;4.682;2023-04-29T01:43:36;101858.25;;;16.18
64947;BMP280;51469;52.150;4.682;2023-04-29T01:46:04;101852.28;;;16.09
64947;BMP280;51469;52.150;4.682;2023-04-29T01:48:31;101849.50;;;16.16
64947;BMP280;51469;52.150;4.682;2023-04-29T01:50:56;101853.03;;;16.06
64947;BMP280;51469;52.150;4.682;2023-04-29T01:53:21;101858.00;;;15.62
64947;BMP280;51469;52.150;4.682;2023-04-29T01:55:47;101862.41;;;15.77
64947;BMP280;51469;52.150;4.682;2023-04-29T01:58:13;101868.38;;;15.83
64947;BMP280;51469;52.150;4.682;2023-04-29T02:00:38;101865.22;;;15.84
64947;BMP280;51469;52.150;4.682;2023-04-29T02:03:03;101867.19;;;15.87
64947;BMP280;51469;52.150;4.682;2023-04-29T02:05:29;101866.03;;;15.95
64947;BMP280;51469;52.150;4.682;2023-04-29T02:07:58;101860.47;;;15.95
64947;BMP280;51469;52.150;4.682;2023-04-29T02:10:23;101868.81;;;15.92
64947;BMP280;51469;52.150;4.682;2023-04-29T02:12:49;101871.94;;;15.83
64947;BMP280;51469;52.150;4.682;2023-04-29T02:15:14;101873.91;;;15.86
64947;BMP280;51469;52.150;4.682;2023-04-29T02:17:39;101879.38;;;15.72
64947;BMP280;51469;52.150;4.682;2023-04-29T02:20:06;101883.00;;;15.83
64947;BMP280;51469;52.150;4.682;2023-04-29T02:22:31;101881.47;;;15.96
64947;BMP280;51469;52.150;4.682;2023-04-29T02:24:57;101895.72;;;15.98
64947;BMP280;51469;52.150;4.682;2023-04-29T02:27:22;101890.56;;;15.93
64947;BMP280;51469;52.150;4.682;2023-04-29T02:29:48;101894.50;;;15.96
64947;BMP280;51469;52.150;4.682;2023-04-29T02:32:15;101903.97;;;15.91
64947;BMP280;51469;52.150;4.682;2023-04-29T02:34:44;101906.38;;;15.96
64947;BMP280;51469;52.150;4.682;2023-04-29T02:37:09;101905.63;;;15.99
64947;BMP280;51469;52.150;4.682;2023-04-29T02:39:35;101913.91;;;15.99
64947;BMP280;51469;52.150;4.682;2023-04-29T02:42:00;101910.31;;;15.95
64947;BMP280;51469;52.150;4.682;2023-04-29T02:44:27;101905.09;;;15.80
64947;BMP280;51469;52.150;4.682;2023-04-29T02:46:52;101917.84;;;15.34
64947;BMP280;51469;52.150;4.682;2023-04-29T02:49:17;101922.84;;;15.68
64947;BMP280;51469;52.150;4.682;2023-04-29T02:51:43;101929.56;;;15.74
64947;BMP280;51469;52.150;4.682;2023-04-29T02:54:08;101926.03;;;15.77
64947;BMP280;51469;52.150;4.682;2023-04-29T02:56:35;101923.63;;;15.72
64947;BMP280;51469;52.150;4.682;2023-04-29T02:59:01;101930.06;;;15.83
64947;BMP280;51469;52.150;4.682;2023-04-29T03:01:26;101924.16;;;15.88
64947;BMP280;51469;52.150;4.682;2023-04-29T03:03:51;101934.09;;;16.00
64947;BMP280;51469;52.150;4.682;2023-04-29T03:06:17;101932.50;;;16.02
64947;BMP280;51469;52.150;4.682;2023-04-29T03:08:43;101938.84;;;16.06
64947;BMP280;51469;52.150;4.682;2023-04-29T03:11:08;101932.94;;;16.04
64947;BMP280;51469;52.150;4.682;2023-04-29T03:13:33;101937.28;;;16.05
64947;BMP280;51469;52.150;4.682;2023-04-29T03:15:59;101941.50;;;15.85
64947;BMP280;51469;52.150;4.682;2023-04-29T03:18:25;101950.66;;;15.96
64947;BMP280;51469;52.150;4.682;2023-04-29T03:20:51;101952.97;;;15.87
64947;BMP280;51469;52.150;4.682;2023-04-29T03:23:16;101940.03;;;15.98
64947;BMP280;51469;52.150;4.682;2023-04-29T03:25:41;101948.34;;;16.05
64947;BMP280;51469;52.150;4.682;2023-04-29T03:28:07;101948.34;;;16.05
64947;BMP280;51469;52.150;4.682;2023-04-29T03:30:32;101944.41;;;16.06
64947;BMP280;51469;52.150;4.682;2023-04-29T03:32:58;101937.25;;;16.02
64947;BMP280;51469;52.150;4.682;2023-04-29T03:35:23;101950.34;;;16.05
64947;BMP280;51469;52.150;4.682;2023-04-29T03:37:48;101941.22;;;16.04
64947;BMP280;51469;52.150;4.682;2023-04-29T03:40:14;101942.78;;;15.98
64947;BMP280;51469;52.150;4.682;2023-04-29T03:42:39;101947.16;;;16.03
64947;BMP280;51469;52.150;4.682;2023-04-29T03:45:05;101946.78;;;16.11
64947;BMP280;51469;52.150;4.682;2023-04-29T03:47:31;101940.03;;;16.05
64947;BMP280;51469;52.150;4.682;2023-04-29T03:49:56;101945.16;;;16.07
64947;BMP280;51469;52.150;4.682;2023-04-29T03:52:22;101949.91;;;16.03
64947;BMP280;51469;52.150;4.682;2023-04-29T03:54:47;101945.22;;;16.10
64947;BMP280;51469;52.150;4.682;2023-04-29T03:57:12;101947.22;;;16.13
64947;BMP280;51469;52.150;4.682;2023-04-29T03:59:38;101960.28;;;16.16
64947;BMP280;51469;52.150;4.682;2023-04-29T04:02:04;101963.41;;;16.08
64947;BMP280;51469;52.150;4.682;2023-04-29T04:04:29;101971.72;;;16.11
64947;BMP280;51469;52.150;4.682;2023-04-29T04:06:54;101976.50;;;16.14
64947;BMP280;51469;52.150;4.682;2023-04-29T04:09:20;101975.31;;;16.15
64947;BMP280;51469;52.150;4.682;2023-04-29T04:11:45;101974.53;;;16.18
64947;BMP280;51469;52.150;4.682;2023-04-29T04:14:11;101954.66;;;16.02
64947;BMP280;51469;52.150;4.682;2023-04-29T04:16:36;101981.28;;;16.21
64947;BMP280;51469;52.150;4.682;2023-04-29T04:19:02;101975.31;;;16.22
64947;BMP280;51469;52.150;4.682;2023-04-29T04:21:27;101975.31;;;16.15
64947;BMP280;51469;52.150;4.682;2023-04-29T04:23:54;101984.38;;;16.12
64947;BMP280;51469;52.150;4.682;2023-04-29T04:26:19;101988.75;;;16.10
64947;BMP280;51469;52.150;4.682;2023-04-29T04:28:45;101986.38;;;16.15
64947;BMP280;51469;52.150;4.682;2023-04-29T04:31:11;101995.88;;;16.18
64947;BMP280;51469;52.150;4.682;2023-04-29T04:33:39;101998.25;;;16.16
64947;BMP280;51469;52.150;4.682;2023-04-29T04:36:04;102002.63;;;16.20
64947;BMP280;51469;52.150;4.682;2023-04-29T04:38:30;102010.94;;;16.20
64947;BMP280;51469;52.150;4.682;2023-04-29T04:40:57;102011.69;;;16.17
64947;BMP280;51469;52.150;4.682;2023-04-29T04:43:22;102021.19;;;16.16
64947;BMP280;51469;52.150;4.682;2023-04-29T04:45:48;102017.97;;;16.07
64947;BMP280;51469;52.150;4.682;2023-04-29T04:48:13;102020.69;;;16.00
64947;BMP280;51469;52.150;4.682;2023-04-29T04:50:38;102027.34;;;15.89
64947;BMP280;51469;52.150;4.682;2023-04-29T04:53:04;102026.50;;;15.85
64947;BMP280;51469;52.150;4.682;2023-04-29T04:55:30;102036.69;;;15.70
64947;BMP280;51469;52.150;4.682;2023-04-29T04:57:57;102035.03;;;15.66
64947;BMP280;51469;52.150;4.682;2023-04-29T05:00:22;102046.78;;;15.52
64947;BMP280;51469;52.150;4.682;2023-04-29T05:02:48;102046.81;;;15.56
64947;BMP280;51469;52.150;4.682;2023-04-29T05:05:13;102047.00;;;15.73
64947;BMP280;51469;52.150;4.682;2023-04-29T05:07:38;102050.69;;;15.48
64947;BMP280;51469;52.150;4.682;2023-04-29T05:10:04;102057.47;;;15.14
64947;BMP280;51469;52.150;4.682;2023-04-29T05:12:30;102052.38;;;15.59
64947;BMP280;51469;52.150;4.682;2023-04-29T05:14:57;102059.63;;;15.74
64947;BMP280;51469;52.150;4.682;2023-04-29T05:17:22;102051.81;;;15.83
64947;BMP280;51469;52.150;4.682;2023-04-29T05:19:48;102051.09;;;15.93
64947;BMP280;51469;52.150;4.682;2023-04-29T05:22:13;102050.44;;;16.10
64947;BMP280;51469;52.150;4.682;2023-04-29T05:24:38;102060.72;;;16.17
64947;BMP280;51469;52.150;4.682;2023-04-29T05:27:04;102058.81;;;16.24
64947;BMP280;51469;52.150;4.682;2023-04-29T05:29:29;102066.28;;;16.13
64947;BMP280;51469;52.150;4.682;2023-04-29T05:31:55;102060.00;;;16.20
64947;BMP280;51469;52.150;4.682;2023-04-29T05:34:20;102075.69;;;16.05
64947;BMP280;51469;52.150;4.682;2023-04-29T05:36:46;102069.47;;;16.22
64947;BMP280;51469;52.150;4.682;2023-04-29T05:39:11;102080.06;;;16.06
64947;BMP280;51469;52.150;4.682;2023-04-29T05:41:36;102077.34;;;16.17
64947;BMP280;51469;52.150;4.682;2023-04-29T05:44:02;102070.34;;;16.26
64947;BMP280;51469;52.150;4.682;2023-04-29T05:46:27;102083.03;;;16.34
64947;BMP280;51469;52.150;4.682;2023-04-29T05:48:52;102082.31;;;16.44
64947;BMP280;51469;52.150;4.682;2023-04-29T05:51:18;102085.91;;;16.55
64947;BMP280;51469;52.150;4.682;2023-04-29T05:53:44;102070.84;;;16.49
64947;BMP280;51469;52.150;4.682;2023-04-29T05:56:09;102091.94;;;16.71
64947;BMP280;51469;52.150;4.682;2023-04-29T05:58:35;102093.91;;;16.74
64947;BMP280;51469;52.150;4.682;2023-04-29T06:01:00;102100.69;;;16.80
64947;BMP280;51469;52.150;4.682;2023-04-29T06:03:26;102108.59;;;16.78
64947;BMP280;51469;52.150;4.682;2023-04-29T06:05:51;102109.31;;;16.68
64947;BMP280;51469;52.150;4.682;2023-04-29T06:08:17;102117.31;;;16.80
64947;BMP280;51469;52.150;4.682;2023-04-29T06:10:42;102122.38;;;16.03
64947;BMP280;51469;52.150;4.682;2023-04-29T06:13:08;102121.81;;;16.34
64947;BMP280;51469;52.150;4.682;2023-04-29T06:15:33;102122.31;;;16.54
64947;BMP280;51469;52.150;4.682;2023-04-29T06:17:59;102132.31;;;16.72
64947;BMP280;51469;52.150;4.682;2023-04-29T06:20:24;102126.78;;;16.72
64947;BMP280;51469;52.150;4.682;2023-04-29T06:22:50;102132.03;;;16.98
64947;BMP280;51469;52.150;4.682;2023-04-29T06:25:15;102139.94;;;16.86
64947;BMP280;51469;52.150;4.682;2023-04-29T06:27:41;102147.50;;;16.92
64947;BMP280;51469;52.150;4.682;2023-04-29T06:30:07;102153.03;;;16.92
64947;BMP280;51469;52.150;4.682;2023-04-29T06:32:32;102150.59;;;16.80
64947;BMP280;51469;52.150;4.682;2023-04-29T06:34:58;102154.88;;;16.74
64947;BMP280;51469;52.150;4.682;2023-04-29T06:37:23;102152.06;;;16.60
64947;BMP280;51469;52.150;4.682;2023-04-29T06:39:48;102152.06;;;16.60
64947;BMP280;51469;52.150;4.682;2023-04-29T06:42:14;102162.94;;;15.85
64947;BMP280;51469;52.150;4.682;2023-04-29T06:44:39;102162.88;;;16.25
64947;BMP280;51469;52.150;4.682;2023-04-29T06:47:04;102170.13;;;16.40
64947;BMP280;51469;52.150;4.682;2023-04-29T06:49:30;102167.25;;;16.91
64947;BMP280;51469;52.150;4.682;2023-04-29T06:51:55;102164.13;;;16.92
64947;BMP280;51469;52.150;4.682;2023-04-29T06:54:21;102176.06;;;17.07
64947;BMP280;51469;52.150;4.682;2023-04-29T06:56:46;102172.88;;;17.01
64947;BMP280;51469;52.150;4.682;2023-04-29T06:59:12;102195.16;;;17.29
64947;BMP280;51469;52.150;4.682;2023-04-29T07:01:39;102190.28;;;16.98
64947;BMP280;51469;52.150;4.682;2023-04-29T07:04:04;102194.31;;;17.11
64947;BMP280;51469;52.150;4.682;2023-04-29T07:06:30;102196.25;;;17.04
64947;BMP280;51469;52.150;4.682;2023-04-29T07:08:55;102201.34;;;16.91
64947;BMP280;51469;52.150;4.682;2023-04-29T07:11:21;102200.78;;;17.40
64947;BMP280;51469;52.150;4.682;2023-04-29T07:13:49;102198.22;;;17.03
64947;BMP280;51469;52.150;4.682;2023-04-29T07:16:15;102207.06;;;17.26
64947;BMP280;51469;52.150;4.682;2023-04-29T07:18:42;102208.09;;;17.01
64947;BMP280;51469;52.150;4.682;2023-04-29T07:21:07;102207.06;;;17.26
64947;BMP280;51469;52.150;4.682;2023-04-29T07:23:32;102202.22;;;17.13
64947;BMP280;51469;52.150;4.682;2023-04-29T07:25:58;102210.31;;;17.56
64947;BMP280;51469;52.150;4.682;2023-04-29T07:28:23;102215.09;;;17.66
64947;BMP280;51469;52.150;4.682;2023-04-29T07:30:48;102215.94;;;17.98
64947;BMP280;51469;52.150;4.682;2023-04-29T07:33:14;102217.94;;;18.15
64947;BMP280;51469;52.150;4.682;2023-04-29T07:35:39;102221.50;;;18.40
64947;BMP280;51469;52.150;4.682;2023-04-29T07:38:07;102223.91;;;18.06
64947;BMP280;51469;52.150;4.682;2023-04-29T07:40:32;102219.09;;;18.42
64947;BMP280;51469;52.150;4.682;2023-04-29T07:42:57;102227.06;;;18.36
64947;BMP280;51469;52.150;4.682;2023-04-29T07:45:23;102230.19;;;18.70
64947;BMP280;51469;52.150;4.682;2023-04-29T07:47:48;102231.78;;;18.71
64947;BMP280;51469;52.150;4.682;2023-04-29T07:50:13;102226.16;;;18.92
64947;BMP280;51469;52.150;4.682;2023-04-29T07:52:40;102225.41;;;18.74
64947;BMP280;51469;52.150;4.682;2023-04-29T07:55:05;102231.69;;;18.99
64947;BMP280;51469;52.150;4.682;2023-04-29T07:57:31;102225.34;;;19.02
64947;BMP280;51469;52.150;4.682;2023-04-29T07:59:56;102233.25;;;19.07
64947;BMP280;51469;52.150;4.682;2023-04-29T08:02:21;102235.63;;;19.12
64947;BMP280;51469;52.150;4.682;2023-04-29T08:04:48;102220.50;;;19.13
64947;BMP280;51469;52.150;4.682;2023-04-29T08:07:15;102242.09;;;18.81
64947;BMP280;51469;52.150;4.682;2023-04-29T08:09:40;102240.41;;;19.15
64947;BMP280;51469;52.150;4.682;2023-04-29T08:12:06;102240.06;;;18.92
64947;BMP280;51469;52.150;4.682;2023-04-29T08:14:31;102240.13;;;18.60
64947;BMP280;51469;52.150;4.682;2023-04-29T08:16:57;102232.16;;;18.83
64947;BMP280;51469;52.150;4.682;2023-04-29T08:19:22;102245.19;;;19.04
64947;BMP280;51469;52.150;4.682;2023-04-29T08:21:47;102242.84;;;18.85
64947;BMP280;51469;52.150;4.682;2023-04-29T08:24:13;102242.13;;;18.60
64947;BMP280;51469;52.150;4.682;2023-04-29T08:26:41;102239.75;;;18.62
64947;BMP280;51469;52.150;4.682;2023-04-29T08:29:07;102249.31;;;18.43
64947;BMP280;51469;52.150;4.682;2023-04-29T08:31:32;102240.53;;;18.52
64947;BMP280;51469;52.150;4.682;2023-04-29T08:33:58;102248.88;;;17.96
64947;BMP280;51469;52.150;4.682;2023-04-29T08:36:23;102247.25;;;18.79
64947;BMP280;51469;52.150;4.682;2023-04-29T08:38:49;102245.69;;;18.71
64947;BMP280;51469;52.150;4.682;2023-04-29T08:41:17;102253.16;;;18.95
64947;BMP280;51469;52.150;4.682;2023-04-29T08:43:42;102256.00;;;18.63
64947;BMP280;51469;52.150;4.682;2023-04-29T08:46:08;102258.00;;;18.70
64947;BMP280;51469;52.150;4.682;2023-04-29T08:48:36;102264.28;;;18.91
64947;BMP280;51469;52.150;4.682;2023-04-29T08:51:02;102263.78;;;19.21
64947;BMP280;51469;52.150;4.682;2023-04-29T08:53:27;102267.28;;;19.42
64947;BMP280;51469;52.150;4.682;2023-04-29T08:55:54;102268.66;;;19.82
64947;BMP280;51469;52.150;4.682;2023-04-29T08:58:21;102274.22;;;19.82
64947;BMP280;51469;52.150;4.682;2023-04-29T09:00:48;102278.03;;;20.09
64947;BMP280;51469;52.150;4.682;2023-04-29T09:03:32;102281.19;;;20.11
64947;BMP280;51469;52.150;4.682;2023-04-29T09:05:59;102280.63;;;19.72
64947;BMP280;51469;52.150;4.682;2023-04-29T09:08:28;102282.44;;;19.41
64947;BMP280;51469;52.150;4.682;2023-04-29T09:10:55;102282.50;;;19.24
64947;BMP280;51469;52.150;4.682;2023-04-29T09:13:30;102284.06;;;19.32
64947;BMP280;51469;52.150;4.682;2023-04-29T09:15:56;102285.22;;;19.31
64947;BMP280;51469;52.150;4.682;2023-04-29T09:18:57;102284.16;;;19.11
64947;BMP280;51469;52.150;4.682;2023-04-29T09:21:24;102286.59;;;18.84
64947;BMP280;51469;52.150;4.682;2023-04-29T09:23:56;102288.91;;;19.14
64947;BMP280;51469;52.150;4.682;2023-04-29T09:26:21;102288.13;;;19.06
64947;BMP280;51469;52.150;4.682;2023-04-29T09:29:10;102281.13;;;19.67
64947;BMP280;51469;52.150;4.682;2023-04-29T09:31:39;102283.81;;;19.77
64947;BMP280;51469;52.150;4.682;2023-04-29T09:34:05;102293.81;;;19.68
64947;BMP280;51469;52.150;4.682;2023-04-29T09:36:34;102300.72;;;19.39
64947;BMP280;51469;52.150;4.682;2023-04-29T09:39:04;102291.28;;;19.05
64947;BMP280;51469;52.150;4.682;2023-04-29T09:41:34;102300.84;;;19.11
64947;BMP280;51469;52.150;4.682;2023-04-29T09:44:03;102303.00;;;19.61
64947;BMP280;51469;52.150;4.682;2023-04-29T09:46:35;102296.59;;;19.68
64947;BMP280;51469;52.150;4.682;2023-04-29T09:49:20;102298.63;;;20.18
64947;BMP280;51469;52.150;4.682;2023-04-29T09:51:55;102296.91;;;18.77
64947;BMP280;51469;52.150;4.682;2023-04-29T09:54:23;102292.91;;;18.92
64947;BMP280;51469;52.150;4.682;2023-04-29T09:56:50;102300.09;;;18.65
64947;BMP280;51469;52.150;4.682;2023-04-29T09:59:17;102305.53;;;19.28
64947;BMP280;51469;52.150;4.682;2023-04-29T10:01:43;102299.16;;;19.31
64947;BMP280;51469;52.150;4.682;2023-04-29T10:04:10;102295.94;;;19.39
64947;BMP280;51469;52.150;4.682;2023-04-29T10:06:39;102295.09;;;19.53
64947;BMP280;51469;52.150;4.682;2023-04-29T10:09:06;102306.91;;;19.74
64947;BMP280;51469;52.150;4.682;2023-04-29T10:11:33;102299.69;;;19.84
64947;BMP280;51469;52.150;4.682;2023-04-29T10:13:59;102299.91;;;20.10
64947;BMP280;51469;52.150;4.682;2023-04-29T10:16:29;102305.16;;;19.98
64947;BMP280;51469;52.150;4.682;2023-04-29T10:18:59;102304.31;;;20.08
64947;BMP280;51469;52.150;4.682;2023-04-29T10:21:28;102307.44;;;20.17
64947;BMP280;51469;52.150;4.682;2023-04-29T10:23:56;102304.22;;;20.22
64947;BMP280;51469;52.150;4.682;2023-04-29T10:26:27;102293.00;;;20.29
64947;BMP280;51469;52.150;4.682;2023-04-29T10:28:57;102315.66;;;19.80
64947;BMP280;51469;52.150;4.682;2023-04-29T10:31:26;102308.13;;;20.28
64947;BMP280;51469;52.150;4.682;2023-04-29T10:33:54;102310.81;;;20.42
64947;BMP280;51469;52.150;4.682;2023-04-29T10:36:21;102313.00;;;20.17
64947;BMP280;51469;52.150;4.682;2023-04-29T10:38:50;102305.91;;;20.02
64947;BMP280;51469;52.150;4.682;2023-04-29T10:41:41;102303.25;;;19.02
64947;BMP280;51469;52.150;4.682;2023-04-29T10:44:09;102303.69;;;19.83
64947;BMP280;51469;52.150;4.682;2023-04-29T10:46:35;102305.16;;;19.98
64947;BMP280;51469;52.150;4.682;2023-04-29T10:49:03;102309.13;;;20.04
64947;BMP280;51469;52.150;4.682;2023-04-29T10:51:32;102311.38;;;20.67
64947;BMP280;51469;52.150;4.682;2023-04-29T10:54:17;102317.34;;;20.69
64947;BMP280;51469;52.150;4.682;2023-04-29T10:56:51;102316.03;;;21.14
64947;BMP280;51469;52.150;4.682;2023-04-29T11:02:05;102318.50;;;21.95
64947;BMP280;51469;52.150;4.682;2023-04-29T11:04:30;102310.09;;;20.75
64947;BMP280;51469;52.150;4.682;2023-04-29T11:06:56;102308.53;;;21.07
64947;BMP280;51469;52.150;4.682;2023-04-29T11:14:26;102310.47;;;20.33
64947;BMP280;51469;52.150;4.682;2023-04-29T11:16:54;102317.13;;;20.90
64947;BMP280;51469;52.150;4.682;2023-04-29T11:19:23;102315.78;;;21.35
64947;BMP280;51469;52.150;4.682;2023-04-29T11:22:03;102316.88;;;21.11
64947;BMP280;51469;52.150;4.682;2023-04-29T11:24:33;102321.00;;;20.96
64947;BMP280;51469;52.150;4.682;2023-04-29T11:27:00;102324.69;;;20.89
64947;BMP280;51469;52.150;4.682;2023-04-29T11:29:30;102321.53;;;21.21
64947;BMP280;51469;52.150;4.682;2023-04-29T11:32:01;102320.13;;;21.69
64947;BMP280;51469;52.150;4.682;2023-04-29T11:34:27;102313.25;;;21.44
64947;BMP280;51469;52.150;4.682;2023-04-29T11:36:52;102322.81;;;20.76
64947;BMP280;51469;52.150;4.682;2023-04-29T11:39:18;102311.84;;;21.29
64947;BMP280;51469;52.150;4.682;2023-04-29T11:41:43;102311.81;;;21.32
64947;BMP280;51469;52.150;4.682;2023-04-29T11:44:10;102319.81;;;20.97
64947;BMP280;51469;52.150;4.682;2023-04-29T11:46:36;102313.19;;;21.51
64947;BMP280;51469;52.150;4.682;2023-04-29T11:49:01;102320.38;;;21.48
64947;BMP280;51469;52.150;4.682;2023-04-29T11:51:27;102318.69;;;21.58
64947;BMP280;51469;52.150;4.682;2023-04-29T11:54:00;102320.28;;;20.92
64947;BMP280;51469;52.150;4.682;2023-04-29T11:56:26;102320.78;;;21.77
64947;BMP280;51469;52.150;4.682;2023-04-29T11:58:55;102312.44;;;22.00
64947;BMP280;51469;52.150;4.682;2023-04-29T12:01:21;102321.53;;;21.81
64947;BMP280;51469;52.150;4.682;2023-04-29T12:03:48;102317.25;;;21.73
64947;BMP280;51469;52.150;4.682;2023-04-29T12:06:14;102326.78;;;22.02
64947;BMP280;51469;52.150;4.682;2023-04-29T12:08:39;102315.88;;;21.28
64947;BMP280;51469;52.150;4.682;2023-04-29T12:11:05;102319.56;;;21.78
64947;BMP280;51469;52.150;4.682;2023-04-29T12:13:32;102316.56;;;21.92
64947;BMP280;51469;52.150;4.682;2023-04-29T12:16:00;102319.47;;;20.95
64947;BMP280;51469;52.150;4.682;2023-04-29T12:18:27;102320.66;;;21.57
64947;BMP280;51469;52.150;4.682;2023-04-29T12:20:53;102313.88;;;21.85
64947;BMP280;51469;52.150;4.682;2023-04-29T12:23:21;102322.41;;;22.01
64947;BMP280;51469;52.150;4.682;2023-04-29T12:25:57;102315.25;;;22.23
64947;BMP280;51469;52.150;4.682;2023-04-29T12:28:23;102318.66;;;22.57
64947;BMP280;51469;52.150;4.682;2023-04-29T12:30:51;102316.91;;;22.86
64947;BMP280;51469;52.150;4.682;2023-04-29T12:33:28;102315.09;;;23.14
64947;BMP280;51469;52.150;4.682;2023-04-29T12:35:57;102335.97;;;21.76
64947;BMP280;51469;52.150;4.682;2023-04-29T12:38:30;102337.00;;;21.59
64947;BMP280;51469;52.150;4.682;2023-04-29T12:40:58;102329.97;;;22.04
64947;BMP280;51469;52.150;4.682;2023-04-29T12:43:29;102323.13;;;22.74
64947;BMP280;51469;52.150;4.682;2023-04-29T12:46:21;102310.66;;;22.97
64947;BMP280;51469;52.150;4.682;2023-04-29T12:48:47;102323.56;;;23.30
64947;BMP280;51469;52.150;4.682;2023-04-29T12:51:12;102327.59;;;23.29
64947;BMP280;51469;52.150;4.682;2023-04-29T12:53:38;102329.59;;;23.09
64947;BMP280;51469;52.150;4.682;2023-04-29T12:56:04;102332.13;;;22.62
64947;BMP280;51469;52.150;4.682;2023-04-29T12:58:30;102339.03;;;22.77
64947;BMP280;51469;52.150;4.682;2023-04-29T13:00:56;102331.47;;;22.54
64947;BMP280;51469;52.150;4.682;2023-04-29T13:03:22;102328.38;;;22.72
64947;BMP280;51469;52.150;4.682;2023-04-29T13:05:48;102336.81;;;23.10
64947;BMP280;51469;52.150;4.682;2023-04-29T13:08:16;102332.84;;;23.08
64947;BMP280;51469;52.150;4.682;2023-04-29T13:10:42;102340.22;;;23.37
64947;BMP280;51469;52.150;4.682;2023-04-29T13:13:07;102344.16;;;23.40
64947;BMP280;51469;52.150;4.682;2023-04-29T13:15:34;102340.16;;;23.41
64947;BMP280;51469;52.150;4.682;2023-04-29T13:18:00;102335.56;;;23.11
64947;BMP280;51469;52.150;4.682;2023-04-29T13:20:25;102345.88;;;22.07
64947;BMP280;51469;52.150;4.682;2023-04-29T13:22:51;102348.59;;;22.37
64947;BMP280;51469;52.150;4.682;2023-04-29T13:25:16;102344.84;;;23.08
64947;BMP280;51469;52.150;4.682;2023-04-29T13:27:41;102344.94;;;23.40
64947;BMP280;51469;52.150;4.682;2023-04-29T13:30:08;102335.53;;;23.31
64947;BMP280;51469;52.150;4.682;2023-04-29T13:32:34;102335.75;;;23.75
64947;BMP280;51469;52.150;4.682;2023-04-29T13:35:00;102334.88;;;23.94
64947;BMP280;51469;52.150;4.682;2023-04-29T13:37:26;102339.59;;;24.29
64947;BMP280;51469;52.150;4.682;2023-04-29T13:39:51;102340.66;;;24.19
64947;BMP280;51469;52.150;4.682;2023-04-29T13:42:17;102333.31;;;24.25
64947;BMP280;51469;52.150;4.682;2023-04-29T13:44:42;102330.72;;;24.47
64947;BMP280;51469;52.150;4.682;2023-04-29T13:47:14;102331.63;;;24.72
64947;BMP280;51469;52.150;4.682;2023-04-29T13:49:40;102339.72;;;24.54
64947;BMP280;51469;52.150;4.682;2023-04-29T13:52:08;102330.28;;;24.48
64947;BMP280;51469;52.150;4.682;2023-04-29T13:54:33;102341.19;;;24.14
64947;BMP280;51469;52.150;4.682;2023-04-29T13:56:59;102345.25;;;23.97
64947;BMP280;51469;52.150;4.682;2023-04-29T13:59:28;102354.34;;;24.17
64947;BMP280;51469;52.150;4.682;2023-04-29T14:01:53;102358.53;;;24.41
64947;BMP280;51469;52.150;4.682;2023-04-29T14:04:18;102354.78;;;24.32
64947;BMP280;51469;52.150;4.682;2023-04-29T14:06:44;102354.53;;;24.10
64947;BMP280;51469;52.150;4.682;2023-04-29T14:09:10;102362.91;;;24.26
64947;BMP280;51469;52.150;4.682;2023-04-29T14:11:35;102358.56;;;24.25
64947;BMP280;51469;52.150;4.682;2023-04-29T14:14:01;102361.41;;;24.38
64947;BMP280;51469;52.150;4.682;2023-04-29T14:16:28;102357.63;;;24.44
64947;BMP280;51469;52.150;4.682;2023-04-29T14:18:54;102361.84;;;24.36
64947;BMP280;51469;52.150;4.682;2023-04-29T14:21:19;102368.53;;;24.42